sensor_id;sensor_type;location;lat;lon;timestamp;temperature;humidity
75091;DHT22;63674;48.048;8.306;2023-04-19T00:01:37;3.70;99.90
75091;DHT22;63674;48.048;8.306;2023-04-19T00:04:07;3.60;99.90
75091;DHT22;63674;48.048;8.306;2023-04-19T00:06:36;3.50;99.90
75091;DHT22;63674;48.048;8.306;2023-04-19T00:09:06;3.40;99.90
75091;DHT22;63674;48.048;8.306;2023-04-19T00:11:35;3.50;99.90
75091;DHT22;63674;48.048;8.306;2023-04-19T00:14:04;3.60;99.90
75091;DHT22;63674;48.048;8.306;2023-04-19T00:16:34;3.60;99.90
75091;DHT22;63674;48.048;8.306;2023-04-19T00:19:02;3.70;99.90
75091;DHT22;63674;48.048;8.306;2023-04-19T00:21:31;3.70;99.90
75091;DHT22;63674;48.048;8.306;2023-04-19T00:24:01;3.70;99.90
75091;DHT22;63674;48.048;8.306;2023-04-19T00:26:30;3.80;99.90
75091;DHT22;63674;48.048;8.306;2023-04-19T00:28:59;3.80;99.90
75091;DHT22;63674;48.048;8.306;2023-04-19T00:31:27;3.80;99.90
75091;DHT22;63674;48.048;8.306;2023-04-19T00:33:57;3.80;99.90
75091;DHT22;63674;48.048;8.306;2023-04-19T00:36:26;3.80;99.90
75091;DHT22;63674;48.048;8.306;2023-04-19T00:38:54;3.70;99.90
75091;DHT22;63674;48.048;8.306;2023-04-19T00:41:23;3.70;99.90
75091;DHT22;63674;48.048;8.306;2023-04-19T00:43:51;3.80;99.90
75091;DHT22;63674;48.048;8.306;2023-04-19T00:46:20;3.80;99.90
75091;DHT22;63674;48.048;8.306;2023-04-19T00:48:49;3.70;99.90
75091;DHT22;63674;48.048;8.306;2023-04-19T00:51:19;3.80;99.90
75091;DHT22;63674;48.048;8.306;2023-04-19T00:53:48;3.90;99.90
75091;DHT22;63674;48.048;8.306;2023-04-19T00:56:17;3.90;99.90
75091;DHT22;63674;48.048;8.306;2023-04-19T00:58:49;4.00;99.90
75091;DHT22;63674;48.048;8.306;2023-04-19T01:01:17;4.00;99.90
75091;DHT22;63674;48.048;8.306;2023-04-19T01:03:46;4.00;99.90
75091;DHT22;63674;48.048;8.306;2023-04-19T01:06:15;4.10;99.90
75091;DHT22;63674;48.048;8.306;2023-04-19T01:08:45;4.20;99.90
75091;DHT22;63674;48.048;8.306;2023-04-19T01:11:13;4.20;99.90
75091;DHT22;63674;48.048;8.306;2023-04-19T01:13:42;4.20;99.90
75091;DHT22;63674;48.048;8.306;2023-04-19T01:16:10;4.30;99.90
75091;DHT22;63674;48.048;8.306;2023-04-19T01:18:39;4.40;99.90
75091;DHT22;63674;48.048;8.306;2023-04-19T01:21:07;4.40;99.90
75091;DHT22;63674;48.048;8.306;2023-04-19T01:23:38;4.50;99.90
75091;DHT22;63674;48.048;8.306;2023-04-19T01:26:06;4.50;99.90
75091;DHT22;63674;48.048;8.306;2023-04-19T01:28:35;4.50;99.90
75091;DHT22;63674;48.048;8.306;2023-04-19T01:31:03;4.50;99.90
75091;DHT22;63674;48.048;8.306;2023-04-19T01:33:32;4.60;99.90
75091;DHT22;63674;48.048;8.306;2023-04-19T01:36:01;4.60;99.90
75091;DHT22;63674;48.048;8.306;2023-04-19T01:38:29;4.70;99.90
75091;DHT22;63674;48.048;8.306;2023-04-19T01:40:59;4.70;99.90
75091;DHT22;63674;48.048;8.306;2023-04-19T01:43:28;4.80;99.90
75091;DHT22;63674;48.048;8.306;2023-04-19T01:45:56;4.90;99.90
75091;DHT22;63674;48.048;8.306;2023-04-19T01:48:25;5.00;99.90
75091;DHT22;63674;48.048;8.306;2023-04-19T01:50:54;5.10;99.90
75091;DHT22;63674;48.048;8.306;2023-04-19T01:53:22;5.10;99.90
75091;DHT22;63674;48.048;8.306;2023-04-19T01:55:50;5.20;99.90
75091;DHT22;63674;48.048;8.306;2023-04-19T01:58:20;5.20;99.90
75091;DHT22;63674;48.048;8.306;2023-04-19T02:00:49;5.20;99.90
75091;DHT22;63674;48.048;8.306;2023-04-19T02:03:17;5.30;99.90
75091;DHT22;63674;48.048;8.306;2023-04-19T02:05:46;5.40;99.90
75091;DHT22;63674;48.048;8.306;2023-04-19T02:08:15;5.40;99.90
75091;DHT22;63674;48.048;8.306;2023-04-19T02:10:44;5.50;99.90
75091;DHT22;63674;48.048;8.306;2023-04-19T02:13:12;5.50;99.90
75091;DHT22;63674;48.048;8.306;2023-04-19T02:15:43;5.60;99.90
75091;DHT22;63674;48.048;8.306;2023-04-19T02:18:12;5.60;99.90
75091;DHT22;63674;48.048;8.306;2023-04-19T02:20:40;5.70;99.90
75091;DHT22;63674;48.048;8.306;2023-04-19T02:23:09;5.70;99.90
75091;DHT22;63674;48.048;8.306;2023-04-19T02:25:37;5.80;99.90
75091;DHT22;63674;48.048;8.306;2023-04-19T02:28:06;5.80;99.90
75091;DHT22;63674;48.048;8.306;2023-04-19T02:30:35;5.80;99.90
75091;DHT22;63674;48.048;8.306;2023-04-19T02:33:05;5.80;99.90
75091;DHT22;63674;48.048;8.306;2023-04-19T02:35:34;5.90;99.90
75091;DHT22;63674;48.048;8.306;2023-04-19T02:38:03;5.90;99.90
75091;DHT22;63674;48.048;8.306;2023-04-19T02:40:31;6.00;99.90
75091;DHT22;63674;48.048;8.306;2023-04-19T02:43:00;6.00;99.90
75091;DHT22;63674;48.048;8.306;2023-04-19T02:45:29;6.10;99.90
75091;DHT22;63674;48.048;8.306;2023-04-19T02:47:57;6.10;99.90
75091;DHT22;63674;48.048;8.306;2023-04-19T02:50:28;6.10;99.90
75091;DHT22;63674;48.048;8.306;2023-04-19T02:52:56;6.20;99.90
75091;DHT22;63674;48.048;8.306;2023-04-19T02:55:25;6.20;99.90
75091;DHT22;63674;48.048;8.306;2023-04-19T02:57:54;6.10;99.90
75091;DHT22;63674;48.048;8.306;2023-04-19T03:00:22;6.20;99.90
75091;DHT22;63674;48.048;8.306;2023-04-19T03:02:51;6.20;99.90
75091;DHT22;63674;48.048;8.306;2023-04-19T03:05:20;6.20;99.90
75091;DHT22;63674;48.048;8.306;2023-04-19T03:07:50;6.10;99.90
75091;DHT22;63674;48.048;8.306;2023-04-19T03:10:19;6.10;99.90
75091;DHT22;63674;48.048;8.306;2023-04-19T03:12:47;6.10;99.90
75091;DHT22;63674;48.048;8.306;2023-04-19T03:15:17;6.10;99.90
75091;DHT22;63674;48.048;8.306;2023-04-19T03:17:45;6.10;99.90
75091;DHT22;63674;48.048;8.306;2023-04-19T03:20:14;6.10;99.90
75091;DHT22;63674;48.048;8.306;2023-04-19T03:22:44;6.10;99.90
75091;DHT22;63674;48.048;8.306;2023-04-19T03:25:13;6.10;99.90
75091;DHT22;63674;48.048;8.306;2023-04-19T03:27:43;6.10;99.90
75091;DHT22;63674;48.048;8.306;2023-04-19T03:30:14;6.20;99.90
75091;DHT22;63674;48.048;8.306;2023-04-19T03:32:42;6.20;99.90
75091;DHT22;63674;48.048;8.306;2023-04-19T03:35:11;6.20;99.90
75091;DHT22;63674;48.048;8.306;2023-04-19T03:37:58;6.30;99.90
75091;DHT22;63674;48.048;8.306;2023-04-19T03:40:29;6.30;99.90
75091;DHT22;63674;48.048;8.306;2023-04-19T03:42:58;6.30;99.90
75091;DHT22;63674;48.048;8.306;2023-04-19T03:45:26;6.30;99.90
75091;DHT22;63674;48.048;8.306;2023-04-19T03:47:55;6.30;99.90
75091;DHT22;63674;48.048;8.306;2023-04-19T03:50:25;6.40;99.90
75091;DHT22;63674;48.048;8.306;2023-04-19T03:52:54;6.40;99.90
75091;DHT22;63674;48.048;8.306;2023-04-19T03:55:23;6.40;99.90
75091;DHT22;63674;48.048;8.306;2023-04-19T03:57:53;6.30;99.90
75091;DHT22;63674;48.048;8.306;2023-04-19T04:00:21;6.40;99.90
75091;DHT22;63674;48.048;8.306;2023-04-19T04:02:50;6.50;99.90
75091;DHT22;63674;48.048;8.306;2023-04-19T04:05:19;6.40;99.90
75091;DHT22;63674;48.048;8.306;2023-04-19T04:07:48;6.40;99.90
75091;DHT22;63674;48.048;8.306;2023-04-19T04:10:17;6.30;99.90
75091;DHT22;63674;48.048;8.306;2023-04-19T04:12:45;6.30;99.90
75091;DHT22;63674;48.048;8.306;2023-04-19T04:15:15;6.40;99.90
75091;DHT22;63674;48.048;8.306;2023-04-19T04:17:44;6.40;99.90
75091;DHT22;63674;48.048;8.306;2023-04-19T04:20:12;6.40;99.90
75091;DHT22;63674;48.048;8.306;2023-04-19T04:22:43;6.40;99.90
75091;DHT22;63674;48.048;8.306;2023-04-19T04:25:13;6.40;99.90
75091;DHT22;63674;48.048;8.306;2023-04-19T04:27:42;6.40;99.90
75091;DHT22;63674;48.048;8.306;2023-04-19T04:30:11;6.40;99.90
75091;DHT22;63674;48.048;8.306;2023-04-19T04:32:41;6.40;99.90
75091;DHT22;63674;48.048;8.306;2023-04-19T04:35:11;6.40;99.90
75091;DHT22;63674;48.048;8.306;2023-04-19T04:37:39;6.50;99.90
75091;DHT22;63674;48.048;8.306;2023-04-19T04:40:08;6.50;99.90
75091;DHT22;63674;48.048;8.306;2023-04-19T04:42:38;6.50;99.90
75091;DHT22;63674;48.048;8.306;2023-04-19T04:45:07;6.40;99.90
75091;DHT22;63674;48.048;8.306;2023-04-19T04:47:37;6.50;99.90
75091;DHT22;63674;48.048;8.306;2023-04-19T04:50:08;6.50;99.90
75091;DHT22;63674;48.048;8.306;2023-04-19T04:52:37;6.50;99.90
75091;DHT22;63674;48.048;8.306;2023-04-19T04:55:07;6.50;99.90
75091;DHT22;63674;48.048;8.306;2023-04-19T04:57:35;6.50;99.90
75091;DHT22;63674;48.048;8.306;2023-04-19T05:00:05;6.50;99.90
75091;DHT22;63674;48.048;8.306;2023-04-19T05:02:35;6.50;99.90
75091;DHT22;63674;48.048;8.306;2023-04-19T05:05:04;6.50;99.90
75091;DHT22;63674;48.048;8.306;2023-04-19T05:07:34;6.50;99.90
75091;DHT22;63674;48.048;8.306;2023-04-19T05:10:03;6.40;99.90
75091;DHT22;63674;48.048;8.306;2023-04-19T05:12:33;6.40;99.90
75091;DHT22;63674;48.048;8.306;2023-04-19T05:15:01;6.40;99.90
75091;DHT22;63674;48.048;8.306;2023-04-19T05:17:30;6.50;99.90
75091;DHT22;63674;48.048;8.306;2023-04-19T05:19:58;6.50;99.90
75091;DHT22;63674;48.048;8.306;2023-04-19T05:22:27;6.40;99.90
75091;DHT22;63674;48.048;8.306;2023-04-19T05:24:57;6.50;99.90
75091;DHT22;63674;48.048;8.306;2023-04-19T05:27:26;6.40;99.90
75091;DHT22;63674;48.048;8.306;2023-04-19T05:29:55;6.40;99.90
75091;DHT22;63674;48.048;8.306;2023-04-19T05:32:23;6.50;99.90
75091;DHT22;63674;48.048;8.306;2023-04-19T05:34:53;6.40;99.90
75091;DHT22;63674;48.048;8.306;2023-04-19T05:37:22;6.40;99.90
75091;DHT22;63674;48.048;8.306;2023-04-19T05:39:51;6.40;99.90
75091;DHT22;63674;48.048;8.306;2023-04-19T05:42:21;6.40;99.90
75091;DHT22;63674;48.048;8.306;2023-04-19T05:44:49;6.40;99.90
75091;DHT22;63674;48.048;8.306;2023-04-19T05:47:18;6.40;99.90
75091;DHT22;63674;48.048;8.306;2023-04-19T05:49:47;6.50;99.90
75091;DHT22;63674;48.048;8.306;2023-04-19T05:52:15;6.50;99.90
75091;DHT22;63674;48.048;8.306;2023-04-19T05:54:44;6.60;99.90
75091;DHT22;63674;48.048;8.306;2023-04-19T05:57:13;6.60;99.90
75091;DHT22;63674;48.048;8.306;2023-04-19T05:59:42;6.60;99.90
75091;DHT22;63674;48.048;8.306;2023-04-19T06:02:11;6.60;99.90
75091;DHT22;63674;48.048;8.306;2023-04-19T06:04:40;6.70;99.90
75091;DHT22;63674;48.048;8.306;2023-04-19T06:07:09;6.60;99.90
75091;DHT22;63674;48.048;8.306;2023-04-19T06:09:56;6.60;99.90
75091;DHT22;63674;48.048;8.306;2023-04-19T06:12:25;6.60;99.90
75091;DHT22;63674;48.048;8.306;2023-04-19T06:14:55;6.70;99.90
75091;DHT22;63674;48.048;8.306;2023-04-19T06:17:23;6.70;99.90
75091;DHT22;63674;48.048;8.306;2023-04-19T06:19:52;6.70;99.90
75091;DHT22;63674;48.048;8.306;2023-04-19T06:22:21;6.80;99.90
75091;DHT22;63674;48.048;8.306;2023-04-19T06:24:50;6.70;99.90
75091;DHT22;63674;48.048;8.306;2023-04-19T06:27:18;6.80;99.90
75091;DHT22;63674;48.048;8.306;2023-04-19T06:29:47;6.80;99.90
75091;DHT22;63674;48.048;8.306;2023-04-19T06:32:18;6.80;99.90
75091;DHT22;63674;48.048;8.306;2023-04-19T06:34:47;6.80;99.90
75091;DHT22;63674;48.048;8.306;2023-04-19T06:37:15;6.80;99.90
75091;DHT22;63674;48.048;8.306;2023-04-19T06:39:44;6.80;99.90
75091;DHT22;63674;48.048;8.306;2023-04-19T06:42:13;6.90;99.90
75091;DHT22;63674;48.048;8.306;2023-04-19T06:44:41;6.90;99.90
75091;DHT22;63674;48.048;8.306;2023-04-19T06:47:10;6.90;99.90
75091;DHT22;63674;48.048;8.306;2023-04-19T06:49:40;6.90;99.90
75091;DHT22;63674;48.048;8.306;2023-04-19T06:52:09;6.90;99.90
75091;DHT22;63674;48.048;8.306;2023-04-19T06:54:37;7.00;99.90
75091;DHT22;63674;48.048;8.306;2023-04-19T06:57:06;6.90;99.90
75091;DHT22;63674;48.048;8.306;2023-04-19T06:59:36;6.90;99.90
75091;DHT22;63674;48.048;8.306;2023-04-19T07:02:05;6.80;99.90
75091;DHT22;63674;48.048;8.306;2023-04-19T07:04:34;6.80;99.90
75091;DHT22;63674;48.048;8.306;2023-04-19T07:07:05;6.90;99.90
75091;DHT22;63674;48.048;8.306;2023-04-19T07:09:34;6.90;99.90
75091;DHT22;63674;48.048;8.306;2023-04-19T07:12:02;7.00;99.90
75091;DHT22;63674;48.048;8.306;2023-04-19T07:14:31;7.00;99.90
75091;DHT22;63674;48.048;8.306;2023-04-19T07:17:00;7.00;99.90
75091;DHT22;63674;48.048;8.306;2023-04-19T07:19:28;7.00;99.90
75091;DHT22;63674;48.048;8.306;2023-04-19T07:21:57;7.10;99.90
75091;DHT22;63674;48.048;8.306;2023-04-19T07:24:27;7.10;99.90
75091;DHT22;63674;48.048;8.306;2023-04-19T07:26:56;7.20;99.90
75091;DHT22;63674;48.048;8.306;2023-04-19T07:29:25;7.20;99.90
75091;DHT22;63674;48.048;8.306;2023-04-19T07:31:53;7.20;99.90
75091;DHT22;63674;48.048;8.306;2023-04-19T07:34:22;7.30;99.90
75091;DHT22;63674;48.048;8.306;2023-04-19T07:36:50;7.30;99.90
75091;DHT22;63674;48.048;8.306;2023-04-19T07:39:19;7.30;99.90
75091;DHT22;63674;48.048;8.306;2023-04-19T07:41:49;7.30;99.90
75091;DHT22;63674;48.048;8.306;2023-04-19T07:44:18;7.30;99.90
75091;DHT22;63674;48.048;8.306;2023-04-19T07:46:46;7.30;99.90
75091;DHT22;63674;48.048;8.306;2023-04-19T07:49:15;7.40;99.90
75091;DHT22;63674;48.048;8.306;2023-04-19T07:51:44;7.40;99.90
75091;DHT22;63674;48.048;8.306;2023-04-19T07:54:12;7.40;99.90
75091;DHT22;63674;48.048;8.306;2023-04-19T07:56:44;7.40;99.90
75091;DHT22;63674;48.048;8.306;2023-04-19T07:59:14;7.50;99.90
75091;DHT22;63674;48.048;8.306;2023-04-19T08:01:42;7.50;99.90
75091;DHT22;63674;48.048;8.306;2023-04-19T08:04:11;7.60;99.90
75091;DHT22;63674;48.048;8.306;2023-04-19T08:06:40;7.60;99.90
75091;DHT22;63674;48.048;8.306;2023-04-19T08:09:09;7.70;99.90
75091;DHT22;63674;48.048;8.306;2023-04-19T08:11:38;7.80;99.90
75091;DHT22;63674;48.048;8.306;2023-04-19T08:14:07;7.80;99.90
75091;DHT22;63674;48.048;8.306;2023-04-19T08:16:57;7.90;99.90
75091;DHT22;63674;48.048;8.306;2023-04-19T08:19:28;7.90;99.90
75091;DHT22;63674;48.048;8.306;2023-04-19T08:21:57;7.90;99.90
75091;DHT22;63674;48.048;8.306;2023-04-19T08:24:26;7.90;99.90
75091;DHT22;63674;48.048;8.306;2023-04-19T08:26:54;7.90;99.90
75091;DHT22;63674;48.048;8.306;2023-04-19T08:29:26;7.80;99.90
75091;DHT22;63674;48.048;8.306;2023-04-19T08:31:54;7.80;99.90
75091;DHT22;63674;48.048;8.306;2023-04-19T08:34:24;7.80;99.90
75091;DHT22;63674;48.048;8.306;2023-04-19T08:36:53;7.90;99.90
75091;DHT22;63674;48.048;8.306;2023-04-19T08:39:30;7.90;99.90
75091;DHT22;63674;48.048;8.306;2023-04-19T08:42:04;7.90;99.90
75091;DHT22;63674;48.048;8.306;2023-04-19T08:44:50;7.80;99.90
75091;DHT22;63674;48.048;8.306;2023-04-19T08:47:40;7.90;99.90
75091;DHT22;63674;48.048;8.306;2023-04-19T08:50:14;7.90;99.90
75091;DHT22;63674;48.048;8.306;2023-04-19T08:53:00;7.90;99.90
75091;DHT22;63674;48.048;8.306;2023-04-19T08:55:32;7.90;99.90
75091;DHT22;63674;48.048;8.306;2023-04-19T08:58:02;7.90;99.90
75091;DHT22;63674;48.048;8.306;2023-04-19T09:00:44;8.00;99.90
75091;DHT22;63674;48.048;8.306;2023-04-19T09:03:13;8.00;99.90
75091;DHT22;63674;48.048;8.306;2023-04-19T09:05:44;8.00;99.90
75091;DHT22;63674;48.048;8.306;2023-04-19T09:08:26;8.00;99.90
75091;DHT22;63674;48.048;8.306;2023-04-19T09:10:58;8.00;99.90
75091;DHT22;63674;48.048;8.306;2023-04-19T09:13:28;8.00;99.90
75091;DHT22;63674;48.048;8.306;2023-04-19T09:15:57;8.00;99.90
75091;DHT22;63674;48.048;8.306;2023-04-19T09:18:26;8.00;99.90
75091;DHT22;63674;48.048;8.306;2023-04-19T09:21:00;8.00;99.90
75091;DHT22;63674;48.048;8.306;2023-04-19T09:23:29;8.10;99.90
75091;DHT22;63674;48.048;8.306;2023-04-19T09:25:58;8.00;99.90
75091;DHT22;63674;48.048;8.306;2023-04-19T09:28:31;8.10;99.90
75091;DHT22;63674;48.048;8.306;2023-04-19T09:31:09;8.10;99.90
75091;DHT22;63674;48.048;8.306;2023-04-19T09:34:11;8.10;99.90
75091;DHT22;63674;48.048;8.306;2023-04-19T09:36:43;8.10;99.90
75091;DHT22;63674;48.048;8.306;2023-04-19T09:39:12;8.00;99.90
75091;DHT22;63674;48.048;8.306;2023-04-19T09:41:50;7.90;99.90
75091;DHT22;63674;48.048;8.306;2023-04-19T09:44:19;7.80;99.90
75091;DHT22;63674;48.048;8.306;2023-04-19T09:46:51;7.70;99.90
75091;DHT22;63674;48.048;8.306;2023-04-19T09:49:21;7.70;99.90
75091;DHT22;63674;48.048;8.306;2023-04-19T09:52:13;7.80;99.90
75091;DHT22;63674;48.048;8.306;2023-04-19T09:54:42;7.80;99.90
75091;DHT22;63674;48.048;8.306;2023-04-19T09:57:13;7.90;99.90
75091;DHT22;63674;48.048;8.306;2023-04-19T09:59:42;7.90;99.90
75091;DHT22;63674;48.048;8.306;2023-04-19T10:02:12;7.90;99.90
75091;DHT22;63674;48.048;8.306;2023-04-19T10:04:41;8.00;99.90
75091;DHT22;63674;48.048;8.306;2023-04-19T10:07:17;8.10;99.90
75091;DHT22;63674;48.048;8.306;2023-04-19T10:09:51;8.20;99.90
75091;DHT22;63674;48.048;8.306;2023-04-19T10:12:31;8.20;99.90
75091;DHT22;63674;48.048;8.306;2023-04-19T10:15:04;8.30;99.90
75091;DHT22;63674;48.048;8.306;2023-04-19T10:17:35;8.30;99.90
75091;DHT22;63674;48.048;8.306;2023-04-19T10:20:06;8.30;99.90
75091;DHT22;63674;48.048;8.306;2023-04-19T10:22:39;8.30;99.90
75091;DHT22;63674;48.048;8.306;2023-04-19T10:25:10;8.40;99.90
75091;DHT22;63674;48.048;8.306;2023-04-19T10:27:40;8.50;99.90
75091;DHT22;63674;48.048;8.306;2023-04-19T10:30:18;8.50;99.90
75091;DHT22;63674;48.048;8.306;2023-04-19T10:32:52;8.50;99.90
75091;DHT22;63674;48.048;8.306;2023-04-19T10:35:25;8.50;99.90
75091;DHT22;63674;48.048;8.306;2023-04-19T10:38:05;8.50;99.90
75091;DHT22;63674;48.048;8.306;2023-04-19T10:40:54;8.50;99.90
75091;DHT22;63674;48.048;8.306;2023-04-19T10:43:27;8.40;99.90
75091;DHT22;63674;48.048;8.306;2023-04-19T10:45:59;8.40;99.90
75091;DHT22;63674;48.048;8.306;2023-04-19T10:48:39;8.40;99.90
75091;DHT22;63674;48.048;8.306;2023-04-19T10:51:14;8.40;99.90
75091;DHT22;63674;48.048;8.306;2023-04-19T10:53:49;8.40;99.90
75091;DHT22;63674;48.048;8.306;2023-04-19T10:59:38;8.40;99.90
75091;DHT22;63674;48.048;8.306;2023-04-19T11:02:27;8.50;99.90
75091;DHT22;63674;48.048;8.306;2023-04-19T11:05:00;8.60;99.90
75091;DHT22;63674;48.048;8.306;2023-04-19T11:07:40;8.70;99.90
75091;DHT22;63674;48.048;8.306;2023-04-19T11:10:10;8.80;99.90
75091;DHT22;63674;48.048;8.306;2023-04-19T11:12:43;8.90;99.90
75091;DHT22;63674;48.048;8.306;2023-04-19T11:15:12;9.00;99.90
75091;DHT22;63674;48.048;8.306;2023-04-19T11:17:40;9.10;99.90
75091;DHT22;63674;48.048;8.306;2023-04-19T11:20:10;9.00;99.90
75091;DHT22;63674;48.048;8.306;2023-04-19T11:22:41;9.00;99.90
75091;DHT22;63674;48.048;8.306;2023-04-19T11:25:14;9.10;99.90
75091;DHT22;63674;48.048;8.306;2023-04-19T11:27:46;9.10;99.90
75091;DHT22;63674;48.048;8.306;2023-04-19T11:30:17;9.10;99.90
75091;DHT22;63674;48.048;8.306;2023-04-19T11:32:50;9.10;99.90
75091;DHT22;63674;48.048;8.306;2023-04-19T11:35:21;9.10;99.90
75091;DHT22;63674;48.048;8.306;2023-04-19T11:37:51;9.10;99.90
75091;DHT22;63674;48.048;8.306;2023-04-19T11:40:22;9.10;99.90
75091;DHT22;63674;48.048;8.306;2023-04-19T11:42:54;9.10;99.90
75091;DHT22;63674;48.048;8.306;2023-04-19T11:45:24;9.10;99.90
75091;DHT22;63674;48.048;8.306;2023-04-19T11:47:59;9.20;99.90
75091;DHT22;63674;48.048;8.306;2023-04-19T11:50:33;9.20;99.90
75091;DHT22;63674;48.048;8.306;2023-04-19T11:53:11;9.20;99.90
75091;DHT22;63674;48.048;8.306;2023-04-19T11:55:50;9.20;99.90
75091;DHT22;63674;48.048;8.306;2023-04-19T11:58:24;9.30;99.90
75091;DHT22;63674;48.048;8.306;2023-04-19T12:00:56;9.30;99.90
75091;DHT22;63674;48.048;8.306;2023-04-19T12:03:27;9.40;99.90
75091;DHT22;63674;48.048;8.306;2023-04-19T12:05:56;9.30;99.90
75091;DHT22;63674;48.048;8.306;2023-04-19T12:08:32;9.20;99.90
75091;DHT22;63674;48.048;8.306;2023-04-19T12:11:04;9.10;99.90
75091;DHT22;63674;48.048;8.306;2023-04-19T12:13:34;9.00;99.90
75091;DHT22;63674;48.048;8.306;2023-04-19T12:16:04;9.00;99.90
75091;DHT22;63674;48.048;8.306;2023-04-19T12:18:45;9.00;99.90
75091;DHT22;63674;48.048;8.306;2023-04-19T12:21:26;8.90;99.90
75091;DHT22;63674;48.048;8.306;2023-04-19T12:23:55;8.90;99.90
75091;DHT22;63674;48.048;8.306;2023-04-19T12:26:28;8.80;99.90
75091;DHT22;63674;48.048;8.306;2023-04-19T12:28:57;8.70;99.90
75091;DHT22;63674;48.048;8.306;2023-04-19T12:31:27;8.70;99.90
75091;DHT22;63674;48.048;8.306;2023-04-19T12:33:58;8.60;99.90
75091;DHT22;63674;48.048;8.306;2023-04-19T12:36:27;8.70;99.90
75091;DHT22;63674;48.048;8.306;2023-04-19T12:38:56;8.80;99.90
75091;DHT22;63674;48.048;8.306;2023-04-19T12:41:26;8.80;99.90
75091;DHT22;63674;48.048;8.306;2023-04-19T12:43:54;8.80;99.90
75091;DHT22;63674;48.048;8.306;2023-04-19T12:46:23;8.90;99.90
75091;DHT22;63674;48.048;8.306;2023-04-19T12:48:51;8.80;99.90
75091;DHT22;63674;48.048;8.306;2023-04-19T12:51:20;8.80;99.90
75091;DHT22;63674;48.048;8.306;2023-04-19T12:53:49;8.80;99.90
75091;DHT22;63674;48.048;8.306;2023-04-19T12:56:17;8.70;99.90
75091;DHT22;63674;48.048;8.306;2023-04-19T12:58:48;8.70;99.90
75091;DHT22;63674;48.048;8.306;2023-04-19T13:01:17;8.70;99.90
75091;DHT22;63674;48.048;8.306;2023-04-19T13:03:45;8.70;99.90
75091;DHT22;63674;48.048;8.306;2023-04-19T13:06:14;8.70;99.90
75091;DHT22;63674;48.048;8.306;2023-04-19T13:08:43;8.70;99.90
75091;DHT22;63674;48.048;8.306;2023-04-19T13:11:14;8.70;99.90
75091;DHT22;63674;48.048;8.306;2023-04-19T13:13:51;8.80;99.90
75091;DHT22;63674;48.048;8.306;2023-04-19T13:16:20;8.80;99.90
75091;DHT22;63674;48.048;8.306;2023-04-19T13:18:49;8.80;99.90
75091;DHT22;63674;48.048;8.306;2023-04-19T13:21:18;8.80;99.90
75091;DHT22;63674;48.048;8.306;2023-04-19T13:23:47;8.80;99.90
75091;DHT22;63674;48.048;8.306;2023-04-19T13:26:15;8.80;99.90
75091;DHT22;63674;48.048;8.306;2023-04-19T13:28:44;8.80;99.90
75091;DHT22;63674;48.048;8.306;2023-04-19T13:31:14;8.80;99.90
75091;DHT22;63674;48.048;8.306;2023-04-19T13:33:43;8.90;99.90
75091;DHT22;63674;48.048;8.306;2023-04-19T13:36:12;8.90;99.90
75091;DHT22;63674;48.048;8.306;2023-04-19T13:38:40;9.00;99.90
75091;DHT22;63674;48.048;8.306;2023-04-19T13:41:09;9.00;99.90
75091;DHT22;63674;48.048;8.306;2023-04-19T13:43:37;9.00;99.90
75091;DHT22;63674;48.048;8.306;2023-04-19T13:46:06;9.10;99.90
75091;DHT22;63674;48.048;8.306;2023-04-19T13:48:36;9.10;99.90
75091;DHT22;63674;48.048;8.306;2023-04-19T13:51:05;9.10;99.90
75091;DHT22;63674;48.048;8.306;2023-04-19T13:53:34;9.20;99.90
75091;DHT22;63674;48.048;8.306;2023-04-19T13:56:03;9.20;99.90
75091;DHT22;63674;48.048;8.306;2023-04-19T13:58:35;9.30;99.90
75091;DHT22;63674;48.048;8.306;2023-04-19T14:01:04;9.30;99.90
75091;DHT22;63674;48.048;8.306;2023-04-19T14:03:32;9.40;99.90
75091;DHT22;63674;48.048;8.306;2023-04-19T14:06:03;9.40;99.90
75091;DHT22;63674;48.048;8.306;2023-04-19T14:08:32;9.40;99.90
75091;DHT22;63674;48.048;8.306;2023-04-19T14:11:01;9.50;99.90
75091;DHT22;63674;48.048;8.306;2023-04-19T14:13:29;9.60;99.90
75091;DHT22;63674;48.048;8.306;2023-04-19T14:15:58;9.50;99.90
75091;DHT22;63674;48.048;8.306;2023-04-19T14:18:27;9.70;99.90
75091;DHT22;63674;48.048;8.306;2023-04-19T14:20:55;9.80;99.90
75091;DHT22;63674;48.048;8.306;2023-04-19T14:23:25;9.90;99.90
75091;DHT22;63674;48.048;8.306;2023-04-19T14:25:54;9.90;99.90
75091;DHT22;63674;48.048;8.306;2023-04-19T14:28:23;9.90;99.90
75091;DHT22;63674;48.048;8.306;2023-04-19T14:30:51;10.00;99.90
75091;DHT22;63674;48.048;8.306;2023-04-19T14:33:20;9.90;99.90
75091;DHT22;63674;48.048;8.306;2023-04-19T14:35:49;9.80;99.90
75091;DHT22;63674;48.048;8.306;2023-04-19T14:38:17;9.80;99.90
75091;DHT22;63674;48.048;8.306;2023-04-19T14:40:47;9.60;99.90
75091;DHT22;63674;48.048;8.306;2023-04-19T14:43:16;9.60;99.90
75091;DHT22;63674;48.048;8.306;2023-04-19T14:45:47;9.40;99.90
75091;DHT22;63674;48.048;8.306;2023-04-19T14:48:15;9.20;99.90
75091;DHT22;63674;48.048;8.306;2023-04-19T14:50:47;8.90;99.90
75091;DHT22;63674;48.048;8.306;2023-04-19T14:53:17;8.80;99.90
75091;DHT22;63674;48.048;8.306;2023-04-19T14:55:47;8.70;99.90
75091;DHT22;63674;48.048;8.306;2023-04-19T14:58:15;8.70;99.90
75091;DHT22;63674;48.048;8.306;2023-04-19T15:00:44;8.60;99.90
75091;DHT22;63674;48.048;8.306;2023-04-19T15:03:12;8.60;99.90
75091;DHT22;63674;48.048;8.306;2023-04-19T15:05:42;8.60;99.90
75091;DHT22;63674;48.048;8.306;2023-04-19T15:08:10;8.60;99.90
75091;DHT22;63674;48.048;8.306;2023-04-19T15:10:57;8.50;99.90
75091;DHT22;63674;48.048;8.306;2023-04-19T15:13:26;8.50;99.90
75091;DHT22;63674;48.048;8.306;2023-04-19T15:15:55;8.50;99.90
75091;DHT22;63674;48.048;8.306;2023-04-19T15:18:27;8.50;99.90
75091;DHT22;63674;48.048;8.306;2023-04-19T15:20:55;8.40;99.90
75091;DHT22;63674;48.048;8.306;2023-04-19T15:23:24;8.30;99.90
75091;DHT22;63674;48.048;8.306;2023-04-19T15:25:53;8.30;99.90
75091;DHT22;63674;48.048;8.306;2023-04-19T15:28:23;8.40;99.90
75091;DHT22;63674;48.048;8.306;2023-04-19T15:30:57;8.50;99.90
75091;DHT22;63674;48.048;8.306;2023-04-19T15:33:26;8.50;99.90
75091;DHT22;63674;48.048;8.306;2023-04-19T15:35:55;8.50;99.90
75091;DHT22;63674;48.048;8.306;2023-04-19T15:38:26;8.50;99.90
75091;DHT22;63674;48.048;8.306;2023-04-19T15:40:56;8.40;99.90
75091;DHT22;63674;48.048;8.306;2023-04-19T15:43:27;8.50;99.90
75091;DHT22;63674;48.048;8.306;2023-04-19T15:45:56;8.50;99.90
75091;DHT22;63674;48.048;8.306;2023-04-19T15:48:25;8.40;99.90
75091;DHT22;63674;48.048;8.306;2023-04-19T15:50:53;8.40;99.90
75091;DHT22;63674;48.048;8.306;2023-04-19T15:53:22;8.40;99.90
75091;DHT22;63674;48.048;8.306;2023-04-19T15:55:51;8.50;99.90
75091;DHT22;63674;48.048;8.306;2023-04-19T15:58:22;8.30;99.90
75091;DHT22;63674;48.048;8.306;2023-04-19T16:00:52;8.30;99.90
75091;DHT22;63674;48.048;8.306;2023-04-19T16:03:21;8.30;99.90
75091;DHT22;63674;48.048;8.306;2023-04-19T16:05:50;8.30;99.90
75091;DHT22;63674;48.048;8.306;2023-04-19T16:08:18;8.30;99.90